createdAt,value
2018-12-07T00:00:30.796Z,98545.99
2018-12-07T00:03:34.108Z,98547.93
2018-12-07T00:06:37.341Z,98546.30
2018-12-07T00:09:40.577Z,98540.40
2018-12-07T00:12:43.833Z,98540.40
2018-12-07T00:15:47.057Z,98540.90
2018-12-07T00:18:50.329Z,98542.52
2018-12-07T00:21:53.653Z,98536.61
2018-12-07T00:24:56.889Z,98535.30
2018-12-07T00:28:00.117Z,98532.86
2018-12-07T00:31:03.369Z,98530.20
2018-12-07T00:34:06.621Z,98532.86
2018-12-07T00:37:09.848Z,98523.42
2018-12-07T00:40:13.107Z,98520.73
2018-12-07T00:43:16.489Z,98521.02
2018-12-07T00:46:19.861Z,98515.11
2018-12-07T00:49:23.086Z,98515.91
2018-12-07T00:52:26.317Z,98514.58
2018-12-07T00:55:37.473Z,98511.59
2018-12-07T00:58:40.713Z,98505.90
2018-12-07T01:01:44.194Z,98510.22
2018-12-07T01:04:47.417Z,98507.81
2018-12-07T01:07:50.647Z,98503.25
2018-12-07T01:10:53.935Z,98501.91
2018-12-07T01:13:57.144Z,98503.78
2018-12-07T01:17:00.385Z,98502.44
2018-12-07T01:20:05.501Z,98503.53
2018-12-07T01:23:08.764Z,98498.93
2018-12-07T01:26:12.034Z,98495.43
2018-12-07T01:29:15.240Z,98501.63
2018-12-07T01:32:18.499Z,98500.27
2018-12-07T01:35:21.724Z,98495.72
2018-12-07T01:38:24.956Z,98495.75
2018-12-07T01:41:28.277Z,98492.78
2018-12-07T01:44:31.532Z,98493.55
2018-12-07T01:47:36.689Z,98489.56
2018-12-07T01:50:39.915Z,98482.27
2018-12-07T01:53:43.277Z,98487.64
2018-12-07T01:56:46.495Z,98485.23
2018-12-07T01:59:49.717Z,98474.45
2018-12-07T02:02:52.948Z,98486.02
2018-12-07T02:05:56.186Z,98476.08
2018-12-07T02:08:59.419Z,98468.53
2018-12-07T02:12:02.751Z,98471.45
2018-12-07T02:15:06.269Z,98464.17
2018-12-07T02:18:09.501Z,98460.95
2018-12-07T02:21:12.759Z,98463.39
2018-12-07T02:24:16.070Z,98460.17
2018-12-07T02:27:19.304Z,98453.70
2018-12-07T02:30:22.662Z,98448.38
2018-12-07T02:33:26.002Z,98435.74
2018-12-07T02:36:29.298Z,98441.92
2018-12-07T02:39:32.609Z,98439.13
2018-12-07T02:42:35.930Z,98434.05
2018-12-07T02:45:39.164Z,98435.97
2018-12-07T02:48:42.407Z,98436.20
2018-12-07T02:51:45.725Z,98434.68
2018-12-07T02:54:48.953Z,98425.52
2018-12-07T02:57:52.189Z,98420.42
2018-12-07T03:00:55.484Z,98414.51
2018-12-07T03:03:58.719Z,98410.53
2018-12-07T03:07:01.984Z,98406.20
2018-12-07T03:10:06.448Z,98400.35
2018-12-07T03:13:09.718Z,98397.70
2018-12-07T03:16:12.988Z,98397.42
2018-12-07T03:19:16.219Z,98383.46
2018-12-07T03:22:19.587Z,98367.38
2018-12-07T03:25:22.876Z,98373.00
2018-12-07T03:28:26.224Z,98368.63
2018-12-07T03:31:29.548Z,98372.66
2018-12-07T03:34:32.894Z,98369.72
2018-12-07T03:37:36.118Z,98373.23
2018-12-07T03:40:39.372Z,98375.64
2018-12-07T03:43:42.633Z,98374.00
2018-12-07T03:46:45.932Z,98374.57
2018-12-07T03:49:49.152Z,98374.72
2018-12-07T03:52:52.386Z,98369.33
2018-12-07T03:55:55.706Z,98366.86
2018-12-07T03:58:58.972Z,98366.63
2018-12-07T04:02:02.237Z,98360.73
2018-12-07T04:05:05.711Z,98364.17
2018-12-07T04:08:09.070Z,98356.41
2018-12-07T04:11:12.309Z,98350.21
2018-12-07T04:14:15.630Z,98350.20
2018-12-07T04:17:18.948Z,98348.28
2018-12-07T04:20:22.225Z,98340.73
2018-12-07T04:23:25.458Z,98339.41
2018-12-07T04:26:28.692Z,98334.08
2018-12-07T04:29:31.920Z,98335.41
2018-12-07T04:32:35.241Z,98333.20
2018-12-07T04:35:38.469Z,98325.95
2018-12-07T04:38:41.726Z,98325.70
2018-12-07T04:41:45.045Z,98320.62
2018-12-07T04:44:48.285Z,98319.80
2018-12-07T04:47:51.546Z,98319.52
2018-12-07T04:50:54.865Z,98320.02
2018-12-07T04:53:58.101Z,98326.47
2018-12-07T04:57:01.343Z,98322.44
2018-12-07T05:00:07.433Z,98317.81
2018-12-07T05:03:10.731Z,98316.21
2018-12-07T05:06:14.115Z,98309.05
2018-12-07T05:09:17.332Z,98312.72
2018-12-07T05:12:20.572Z,98308.14
2018-12-07T05:15:23.931Z,98305.70
2018-12-07T05:18:27.254Z,98302.48
2018-12-07T05:21:30.486Z,98296.81
2018-12-07T05:24:34.720Z,98291.49
2018-12-07T05:27:38.121Z,98295.52
2018-12-07T05:30:41.359Z,98292.16
2018-12-07T05:33:44.701Z,98292.71
2018-12-07T05:36:47.985Z,98289.50
2018-12-07T05:39:51.253Z,98286.05
2018-12-07T05:42:54.481Z,98289.78
2018-12-07T05:45:57.740Z,98278.28
2018-12-07T05:49:00.993Z,98283.67
2018-12-07T05:52:04.248Z,98282.84
2018-12-07T05:55:07.539Z,98283.06
2018-12-07T05:58:10.773Z,98280.34
2018-12-07T06:01:14.034Z,98280.39
2018-12-07T06:04:17.382Z,98271.27
2018-12-07T06:07:20.714Z,98270.95
2018-12-07T06:10:24.058Z,98271.27
2018-12-07T06:13:27.299Z,98269.02
2018-12-07T06:16:30.520Z,98269.38
2018-12-07T06:19:33.917Z,98270.52
2018-12-07T06:22:37.136Z,98267.05
2018-12-07T06:25:40.453Z,98266.80
2018-12-07T06:28:43.686Z,98270.81
2018-12-07T06:31:46.917Z,98268.13
2018-12-07T06:34:50.162Z,98267.88
2018-12-07T06:37:53.532Z,98260.05
2018-12-07T06:40:56.766Z,98257.13
2018-12-07T06:44:00.025Z,98261.39
2018-12-07T06:47:03.257Z,98259.23
2018-12-07T06:50:08.499Z,98259.25
2018-12-07T06:53:11.756Z,98254.91
2018-12-07T06:56:14.992Z,98249.58
2018-12-07T06:59:18.220Z,98247.14
2018-12-07T07:02:21.476Z,98245.84
2018-12-07T07:05:24.708Z,98241.23
2018-12-07T07:08:27.950Z,98237.20
2018-12-07T07:11:31.205Z,98226.79
2018-12-07T07:14:34.460Z,98221.59
2018-12-07T07:17:37.801Z,98221.08
2018-12-07T07:20:41.061Z,98220.08
2018-12-07T07:23:44.298Z,98222.47
2018-12-07T07:26:47.646Z,98221.12
2018-12-07T07:29:51.080Z,98217.09
2018-12-07T07:32:54.317Z,98216.28
2018-12-07T07:35:57.560Z,98204.47
2018-12-07T07:39:00.789Z,98210.09
2018-12-07T07:42:04.062Z,98209.77
2018-12-07T07:45:07.666Z,98207.61
2018-12-07T07:48:10.898Z,98214.91
2018-12-07T07:51:14.173Z,98208.67
2018-12-07T07:54:17.405Z,98211.03
2018-12-07T07:57:20.641Z,98200.35
2018-12-07T08:00:23.966Z,98189.53
2018-12-07T08:03:27.328Z,98194.96
2018-12-07T08:06:30.637Z,98193.22
2018-12-07T08:09:33.907Z,98196.17
2018-12-07T08:12:37.157Z,98189.70
2018-12-07T08:15:40.460Z,98189.44
2018-12-07T08:18:43.797Z,98188.61
2018-12-07T08:21:47.061Z,98180.84
2018-12-07T08:24:50.404Z,98169.88
2018-12-07T08:27:53.661Z,98165.52
2018-12-07T08:30:56.929Z,98157.67
2018-12-07T08:34:00.347Z,98140.16
2018-12-07T08:37:03.787Z,98134.59
2018-12-07T08:40:08.247Z,98131.69
2018-12-07T08:43:11.585Z,98129.41
2018-12-07T08:46:14.826Z,98129.33
2018-12-07T08:52:39.009Z,98118.86
2018-12-07T08:55:42.257Z,98106.34
2018-12-07T08:58:45.517Z,98106.14
2018-12-07T09:01:48.780Z,98110.88
2018-12-07T09:04:52.029Z,98110.59
2018-12-07T09:07:55.272Z,98105.28
2018-12-07T09:10:58.533Z,98103.72
2018-12-07T09:14:01.762Z,98099.29
2018-12-07T09:17:04.990Z,98094.77
2018-12-07T09:20:08.292Z,98101.27
2018-12-07T09:23:11.543Z,98096.63
2018-12-07T09:26:14.903Z,98095.23
2018-12-07T09:29:18.302Z,98091.70
2018-12-07T09:32:21.547Z,98088.45
2018-12-07T09:35:24.779Z,98084.66
2018-12-07T09:38:28.033Z,98076.73
2018-12-07T09:41:31.271Z,98076.81
2018-12-07T09:44:34.501Z,98070.14
2018-12-07T09:47:37.819Z,98069.58
2018-12-07T09:50:41.073Z,98062.85
2018-12-07T09:53:44.365Z,98066.42
2018-12-07T09:56:47.618Z,98062.26
2018-12-07T09:59:50.952Z,98055.72
2018-12-07T10:02:54.214Z,98058.03
2018-12-07T10:05:57.528Z,98049.45
2018-12-07T10:09:00.881Z,98051.84
2018-12-07T10:12:04.161Z,98042.41
2018-12-07T10:15:07.536Z,98037.53
2018-12-07T10:18:10.900Z,98033.58
2018-12-07T10:21:14.135Z,98035.27
2018-12-07T10:24:17.367Z,98023.45
2018-12-07T10:27:20.617Z,98008.45
2018-12-07T10:30:23.845Z,98010.30
2018-12-07T10:33:27.080Z,98000.89
2018-12-07T10:36:30.394Z,98018.86
2018-12-07T10:39:33.728Z,97998.89
2018-12-07T10:42:36.959Z,97990.19
2018-12-07T10:45:40.213Z,97996.62
2018-12-07T10:48:43.461Z,97983.28
2018-12-07T10:51:46.720Z,97978.88
2018-12-07T10:54:49.970Z,97965.52
2018-12-07T10:57:53.206Z,97955.19
2018-12-07T11:01:01.827Z,97940.05
2018-12-07T11:04:10.569Z,97932.88
2018-12-07T11:07:19.378Z,97933.78
2018-12-07T11:10:28.025Z,97924.11
2018-12-07T11:13:35.948Z,97912.44
2018-12-07T11:16:44.835Z,97911.41
2018-12-07T11:19:53.757Z,97895.39
2018-12-07T11:23:02.374Z,97889.04
2018-12-07T11:26:11.099Z,97889.92
2018-12-07T11:32:37.237Z,97891.81
2018-12-07T11:35:42.283Z,97876.42
2018-12-07T11:38:45.521Z,97873.13
2018-12-07T11:41:48.896Z,97872.72
2018-12-07T11:44:52.233Z,97864.30
2018-12-07T11:47:55.489Z,97854.68
2018-12-07T11:50:58.878Z,97838.91
2018-12-07T11:54:02.093Z,97837.61
2018-12-07T11:57:05.379Z,97838.41
2018-12-07T12:00:09.078Z,97835.72
2018-12-07T12:03:12.356Z,97830.64
2018-12-07T12:06:15.592Z,97826.06
2018-12-07T12:09:18.875Z,97811.67
2018-12-07T12:12:22.145Z,97811.93
2018-12-07T12:15:25.429Z,97800.80
2018-12-07T12:18:28.659Z,97789.97
2018-12-07T12:21:31.961Z,97790.05
2018-12-07T12:24:35.360Z,97790.19
2018-12-07T12:27:38.603Z,97784.09
2018-12-07T12:30:41.933Z,97782.55
2018-12-07T12:33:45.169Z,97780.35
2018-12-07T12:36:48.402Z,97754.18
2018-12-07T12:39:51.646Z,97751.98
2018-12-07T12:42:54.920Z,97747.64
2018-12-07T12:45:58.147Z,97739.11
2018-12-07T12:49:01.430Z,97727.91
2018-12-07T12:52:04.684Z,97731.23
2018-12-07T12:55:07.937Z,97724.47
2018-12-07T12:58:11.189Z,97710.02
2018-12-07T13:01:14.447Z,97688.83
2018-12-07T13:04:17.670Z,97698.20
2018-12-07T13:07:20.923Z,97694.56
2018-12-07T13:10:24.177Z,97691.69
2018-12-07T13:13:27.452Z,97676.20
2018-12-07T13:16:30.661Z,97652.95
2018-12-07T13:19:33.977Z,97649.76
2018-12-07T13:22:37.212Z,97662.03
2018-12-07T13:25:40.457Z,97657.73
2018-12-07T13:28:43.691Z,97651.58
2018-12-07T13:31:46.982Z,97642.34
2018-12-07T13:34:50.180Z,97638.12
2018-12-07T13:37:53.584Z,97633.31
2018-12-07T13:40:56.996Z,97615.48
2018-12-07T13:44:00.514Z,97601.51
2018-12-07T13:47:04.091Z,97604.00
2018-12-07T13:50:13.265Z,97600.55
2018-12-07T13:53:16.901Z,97592.91
2018-12-07T13:56:20.501Z,97588.45
2018-12-07T13:59:23.937Z,97577.66
2018-12-07T14:02:27.506Z,97575.16
2018-12-07T14:05:32.346Z,97570.70
2018-12-07T14:08:36.172Z,97571.59
2018-12-07T14:11:39.471Z,97573.31
2018-12-07T14:14:42.945Z,97560.86
2018-12-07T14:17:46.303Z,97543.97
2018-12-07T14:20:49.736Z,97533.36
2018-12-07T14:23:53.142Z,97521.47
2018-12-07T14:26:59.556Z,97518.19
2018-12-07T14:30:01.805Z,97523.69
2018-12-07T14:33:05.870Z,97529.06
2018-12-07T14:36:09.368Z,97519.31
2018-12-07T14:39:12.872Z,97502.69
2018-12-07T14:42:16.186Z,97514.24
2018-12-07T14:45:19.621Z,97507.45
2018-12-07T14:48:23.115Z,97507.90
2018-12-07T14:51:26.501Z,97495.20
2018-12-07T14:54:29.832Z,97494.19
2018-12-07T14:57:33.088Z,97479.66
2018-12-07T15:00:36.447Z,97474.59
2018-12-07T15:03:39.887Z,97464.12
2018-12-07T15:06:43.210Z,97459.50
2018-12-07T15:09:46.489Z,97465.70
2018-12-07T15:12:49.932Z,97460.16
2018-12-07T15:15:53.446Z,97461.51
2018-12-07T15:18:56.817Z,97454.92
2018-12-07T15:22:00.229Z,97440.67
2018-12-07T15:25:04.557Z,97431.75
2018-12-07T15:28:07.996Z,97432.87
2018-12-07T15:31:11.377Z,97435.56
2018-12-07T15:34:14.730Z,97430.17
2018-12-07T15:37:18.007Z,97443.30
2018-12-07T15:40:21.436Z,97444.48
2018-12-07T15:43:24.873Z,97435.69
2018-12-07T15:46:28.489Z,97424.22
2018-12-07T15:49:31.889Z,97407.41
2018-12-07T15:52:35.244Z,97418.45
2018-12-07T15:55:38.724Z,97420.03
2018-12-07T15:58:42.303Z,97414.09
2018-12-07T16:01:45.678Z,97406.97
2018-12-07T16:04:49.060Z,97397.28
2018-12-07T16:07:52.425Z,97384.36
2018-12-07T16:10:55.782Z,97385.66
2018-12-07T16:13:59.107Z,97380.73
2018-12-07T16:17:02.597Z,97393.25
2018-12-07T16:20:10.729Z,97396.03
2018-12-07T16:23:14.090Z,97386.03
2018-12-07T16:26:17.642Z,97388.06
2018-12-07T16:29:21.035Z,97388.00
2018-12-07T16:32:24.542Z,97401.27
2018-12-07T16:35:28.281Z,97384.31
2018-12-07T16:38:31.691Z,97400.77
2018-12-07T16:41:35.011Z,97381.32
2018-12-07T16:44:38.621Z,97396.88
2018-12-07T16:47:42.096Z,97396.10
2018-12-07T16:50:45.462Z,97379.25
2018-12-07T16:53:48.840Z,97360.26
2018-12-07T16:56:52.387Z,97347.17
2018-12-07T16:59:55.728Z,97332.76
2018-12-07T17:02:59.103Z,97309.43
2018-12-07T17:06:02.617Z,97301.59
2018-12-07T17:09:07.091Z,97279.84
2018-12-07T17:12:11.590Z,97271.25
2018-12-07T17:15:14.975Z,97276.16
2018-12-07T17:18:18.337Z,97279.39
2018-12-07T17:21:21.703Z,97279.39
2018-12-07T17:24:25.023Z,97280.11
2018-12-07T17:27:28.300Z,97272.59
2018-12-07T17:30:31.590Z,97274.42
2018-12-07T17:33:35.287Z,97256.73
2018-12-07T17:36:38.828Z,97241.91
2018-12-07T17:39:42.260Z,97234.13
2018-12-07T17:42:45.678Z,97231.83
2018-12-07T17:45:49.087Z,97233.13
2018-12-07T17:48:52.430Z,97225.59
2018-12-07T17:51:55.803Z,97231.33
2018-12-07T17:54:59.074Z,97222.91
2018-12-07T17:58:02.322Z,97217.84
2018-12-07T18:01:05.760Z,97218.70
2018-12-07T18:04:09.939Z,97210.75
2018-12-07T18:07:13.398Z,97196.72
2018-12-07T18:10:16.634Z,97199.91
2018-12-07T18:13:20.255Z,97191.82
2018-12-07T18:16:23.944Z,97197.09
2018-12-07T18:19:27.519Z,97193.06
2018-12-07T18:22:31.111Z,97188.11
2018-12-07T18:25:34.351Z,97181.21
2018-12-07T18:28:37.742Z,97172.04
2018-12-07T18:31:41.165Z,97165.59
2018-12-07T18:34:44.521Z,97158.13
2018-12-07T18:37:47.772Z,97161.41
2018-12-07T18:40:51.141Z,97156.50
2018-12-07T18:43:54.658Z,97165.66
2018-12-07T18:46:58.127Z,97168.79
2018-12-07T18:50:01.418Z,97157.97
2018-12-07T18:53:05.071Z,97159.63
2018-12-07T18:56:08.407Z,97156.45
2018-12-07T18:59:11.726Z,97158.95
2018-12-07T19:02:15.508Z,97154.25
2018-12-07T19:05:18.875Z,97151.93
2018-12-07T19:08:22.463Z,97145.80
2018-12-07T19:11:25.907Z,97156.67
2018-12-07T19:14:29.549Z,97147.45
2018-12-07T19:20:42.483Z,97150.41
2018-12-07T19:23:45.748Z,97153.86
2018-12-07T19:26:49.519Z,97148.21
2018-12-07T19:29:52.843Z,97152.91
2018-12-07T19:32:56.196Z,97150.59
2018-12-07T19:35:59.621Z,97151.26
2018-12-07T19:39:04.726Z,97166.25
2018-12-07T19:42:08.122Z,97157.16
2018-12-07T19:45:11.641Z,97169.20
2018-12-07T19:48:15.186Z,97161.73
2018-12-07T19:51:18.764Z,97184.23
2018-12-07T19:54:22.111Z,97193.09
2018-12-07T19:57:25.466Z,97201.41
2018-12-07T20:00:28.934Z,97209.69
2018-12-07T20:03:32.376Z,97221.89
2018-12-07T20:06:35.750Z,97219.34
2018-12-07T20:09:39.025Z,97230.31
2018-12-07T20:12:42.382Z,97228.14
2018-12-07T20:15:45.840Z,97261.47
2018-12-07T20:18:49.200Z,97320.51
2018-12-07T20:21:52.468Z,97360.88
2018-12-07T20:24:55.807Z,97370.25
2018-12-07T20:27:59.415Z,97363.92
2018-12-07T20:31:02.737Z,97357.49
2018-12-07T20:34:06.070Z,97373.21
2018-12-07T20:37:09.572Z,97368.52
2018-12-07T20:40:13.808Z,97366.25
2018-12-07T20:43:17.498Z,97388.75
2018-12-07T20:46:21.000Z,97375.33
2018-12-07T20:49:24.262Z,97395.16
2018-12-07T20:52:27.609Z,97394.33
2018-12-07T20:55:31.167Z,97405.31
2018-12-07T20:58:34.804Z,97423.00
2018-12-07T21:01:38.421Z,97425.41
2018-12-07T21:04:41.997Z,97429.69
2018-12-07T21:07:52.884Z,97425.73
2018-12-07T21:11:01.268Z,97420.48
2018-12-07T21:14:10.843Z,97423.16
2018-12-07T21:17:15.330Z,97402.41
2018-12-07T21:20:18.820Z,97420.59
2018-12-07T21:23:22.171Z,97433.40
2018-12-07T21:26:25.511Z,97444.65
2018-12-07T21:29:28.856Z,97453.73
2018-12-07T21:32:32.148Z,97466.32
2018-12-07T21:35:40.189Z,97482.25
2018-12-07T21:38:43.799Z,97484.17
2018-12-07T21:41:47.126Z,97479.39
2018-12-07T21:44:50.464Z,97469.48
2018-12-07T21:51:28.881Z,97471.39
2018-12-07T21:54:32.547Z,97492.00
2018-12-07T21:57:35.969Z,97485.31
2018-12-07T22:00:39.380Z,97487.75
2018-12-07T22:03:42.799Z,97491.19
2018-12-07T22:06:46.271Z,97510.95
2018-12-07T22:09:49.967Z,97520.58
2018-12-07T22:12:53.469Z,97522.49
2018-12-07T22:15:56.673Z,97536.66
2018-12-07T22:19:00.115Z,97552.48
2018-12-07T22:22:03.744Z,97541.84
2018-12-07T22:25:07.212Z,97538.67
2018-12-07T22:28:10.629Z,97556.05
2018-12-07T22:31:14.318Z,97548.58
2018-12-07T22:34:17.667Z,97538.70
2018-12-07T22:37:21.002Z,97568.31
2018-12-07T22:40:24.352Z,97573.91
2018-12-07T22:43:27.633Z,97592.09
2018-12-07T22:46:30.853Z,97603.02
2018-12-07T22:49:34.163Z,97600.86
2018-12-07T22:52:37.393Z,97617.41
2018-12-07T22:55:40.612Z,97631.30
2018-12-07T22:58:43.829Z,97639.31
2018-12-07T23:01:47.304Z,97637.45
2018-12-07T23:04:50.535Z,97646.24
2018-12-07T23:07:53.754Z,97647.58
2018-12-07T23:10:56.979Z,97649.98
2018-12-07T23:14:00.220Z,97669.21
2018-12-07T23:17:03.436Z,97669.97
2018-12-07T23:20:07.132Z,97679.34
2018-12-07T23:23:10.378Z,97677.15
2018-12-07T23:26:13.625Z,97674.48
2018-12-07T23:29:21.484Z,97682.80
2018-12-07T23:32:24.704Z,97684.11
2018-12-07T23:35:27.961Z,97683.86
2018-12-07T23:38:31.238Z,97688.62
2018-12-07T23:41:34.452Z,97693.77
2018-12-07T23:44:37.674Z,97689.75
2018-12-07T23:47:40.917Z,97682.77
2018-12-07T23:50:44.151Z,97687.05
2018-12-07T23:53:47.413Z,97680.68
2018-12-07T23:56:50.655Z,97699.91
2018-12-07T23:59:53.877Z,97712.48
